createdAt,value
2023-09-10T00:01:55.860Z,96.80
2023-09-10T00:04:22.925Z,96.60
2023-09-10T00:06:49.964Z,98.00
2023-09-10T00:09:17.018Z,97.00
2023-09-10T00:11:44.379Z,96.70
2023-09-10T00:14:12.854Z,97.00
2023-09-10T00:16:39.994Z,96.20
2023-09-10T00:19:07.141Z,97.10
2023-09-10T00:21:34.210Z,96.30
2023-09-10T00:24:01.246Z,95.60
2023-09-10T00:26:28.241Z,95.60
2023-09-10T00:28:55.313Z,95.70
2023-09-10T00:31:23.800Z,95.80
2023-09-10T00:33:50.919Z,94.40
2023-09-10T00:36:17.998Z,95.20
2023-09-10T00:38:45.028Z,95.70
2023-09-10T00:41:12.152Z,95.90
2023-09-10T00:43:39.244Z,96.60
2023-09-10T00:46:06.912Z,96.80
2023-09-10T00:48:35.903Z,96.80
2023-09-10T00:51:03.355Z,97.00
2023-09-10T00:53:30.795Z,97.70
2023-09-10T00:55:57.960Z,97.90
2023-09-10T00:58:25.268Z,98.40
2023-09-10T01:00:52.454Z,97.90
2023-09-10T01:03:20.797Z,97.50
2023-09-10T01:05:49.576Z,97.10
2023-09-10T01:08:16.989Z,98.10
2023-09-10T01:10:50.207Z,97.70
2023-09-10T01:13:31.231Z,98.30
2023-09-10T01:16:03.024Z,98.10
2023-09-10T01:18:37.440Z,98.70
2023-09-10T01:21:24.732Z,99.30
2023-09-10T01:23:59.035Z,99.30
2023-09-10T01:26:27.475Z,99.70
2023-09-10T01:28:54.567Z,99.90
2023-09-10T01:31:21.751Z,99.90
2023-09-10T01:33:55.252Z,99.90
2023-09-10T01:36:32.545Z,99.90
2023-09-10T01:39:06.579Z,99.90
2023-09-10T01:41:38.839Z,99.80
2023-09-10T01:44:06.799Z,99.90
2023-09-10T01:46:35.511Z,99.90
2023-09-10T01:49:02.972Z,99.40
2023-09-10T01:51:30.267Z,99.60
2023-09-10T01:53:57.416Z,99.70
2023-09-10T01:56:24.497Z,99.90
2023-09-10T01:58:52.975Z,99.80
2023-09-10T02:01:20.073Z,99.90
2023-09-10T02:03:47.430Z,99.90
2023-09-10T02:06:14.526Z,99.90
2023-09-10T02:08:41.781Z,99.90
2023-09-10T02:11:09.092Z,99.90
2023-09-10T02:13:36.197Z,99.90
2023-09-10T02:16:05.066Z,99.90
2023-09-10T02:18:32.396Z,99.90
2023-09-10T02:20:59.532Z,99.90
2023-09-10T02:23:26.875Z,99.90
2023-09-10T02:25:54.040Z,99.90
2023-09-10T02:28:21.194Z,99.90
2023-09-10T02:30:49.505Z,99.90
2023-09-10T02:33:17.944Z,99.90
2023-09-10T02:35:45.126Z,99.90
2023-09-10T02:38:12.274Z,99.90
2023-09-10T02:40:39.475Z,99.90
2023-09-10T02:43:06.545Z,99.90
2023-09-10T02:45:33.627Z,99.90
2023-09-10T02:48:00.635Z,99.90
2023-09-10T02:50:29.090Z,99.90
2023-09-10T02:52:56.994Z,99.90
2023-09-10T02:55:24.165Z,99.90
2023-09-10T02:57:51.256Z,99.90
2023-09-10T03:00:18.480Z,99.90
2023-09-10T03:02:45.578Z,99.90
2023-09-10T03:05:12.737Z,99.90
2023-09-10T03:07:41.196Z,99.90
2023-09-10T03:10:08.868Z,99.90
2023-09-10T03:12:36.201Z,99.90
2023-09-10T03:15:03.521Z,99.90
2023-09-10T03:17:30.621Z,99.90
2023-09-10T03:19:57.770Z,99.90
2023-09-10T03:22:26.017Z,99.90
2023-09-10T03:24:54.497Z,99.90
2023-09-10T03:27:21.619Z,99.90
2023-09-10T03:29:48.640Z,99.90
2023-09-10T03:32:18.288Z,99.90
2023-09-10T03:34:47.322Z,99.90
2023-09-10T03:37:14.426Z,99.90
2023-09-10T03:39:41.494Z,99.90
2023-09-10T03:42:09.977Z,99.90
2023-09-10T03:44:37.049Z,99.90
2023-09-10T03:47:04.496Z,99.90
2023-09-10T03:49:31.671Z,99.90
2023-09-10T03:51:59.014Z,99.90
2023-09-10T03:54:26.434Z,99.90
2023-09-10T03:56:53.542Z,99.90
2023-09-10T03:59:22.042Z,99.90
2023-09-10T04:01:49.256Z,99.90
2023-09-10T04:04:16.423Z,99.90
2023-09-10T04:06:43.521Z,99.90
2023-09-10T04:09:10.564Z,99.90
2023-09-10T04:11:37.639Z,99.90
2023-09-10T04:14:04.754Z,99.90
2023-09-10T04:16:33.290Z,99.90
2023-09-10T04:19:00.417Z,99.90
2023-09-10T04:21:27.574Z,99.90
2023-09-10T04:23:57.497Z,99.90
2023-09-10T04:26:24.730Z,99.90
2023-09-10T04:28:52.075Z,99.90
2023-09-10T04:31:19.770Z,99.90
2023-09-10T04:33:48.223Z,99.90
2023-09-10T04:36:15.560Z,99.90
2023-09-10T04:38:42.633Z,99.90
2023-09-10T04:41:09.735Z,99.90
2023-09-10T04:43:36.763Z,99.90
2023-09-10T04:46:03.796Z,99.90
2023-09-10T04:48:30.862Z,99.90
2023-09-10T04:50:59.293Z,99.90
2023-09-10T04:53:26.439Z,99.90
2023-09-10T04:55:53.936Z,99.90
2023-09-10T04:58:21.340Z,99.90
2023-09-10T05:00:49.954Z,99.90
2023-09-10T05:03:17.144Z,99.90
2023-09-10T05:05:44.826Z,99.90
2023-09-10T05:08:17.882Z,99.90
2023-09-10T05:10:48.625Z,99.90
2023-09-10T05:13:15.746Z,99.90
2023-09-10T05:15:42.850Z,99.90
2023-09-10T05:18:09.947Z,99.90
2023-09-10T05:20:37.064Z,99.90
2023-09-10T05:23:04.631Z,99.90
2023-09-10T05:25:35.861Z,99.90
2023-09-10T05:28:02.943Z,99.90
2023-09-10T05:30:30.253Z,99.90
2023-09-10T05:32:57.754Z,99.90
2023-09-10T05:35:25.171Z,99.90
2023-09-10T05:37:54.660Z,99.90
2023-09-10T05:40:21.719Z,99.90
2023-09-10T05:42:50.175Z,99.90
2023-09-10T05:45:17.463Z,99.90
2023-09-10T05:47:44.516Z,99.90
2023-09-10T05:50:14.728Z,99.90
2023-09-10T05:52:41.812Z,99.90
2023-09-10T05:55:09.182Z,99.90
2023-09-10T05:57:36.237Z,99.90
2023-09-10T06:00:05.404Z,99.90
2023-09-10T06:02:32.577Z,99.90
2023-09-10T06:05:00.204Z,99.90
2023-09-10T06:07:27.390Z,99.90
2023-09-10T06:09:54.459Z,99.90
2023-09-10T06:12:21.554Z,99.90
2023-09-10T06:14:48.606Z,99.90
2023-09-10T06:17:17.135Z,99.90
2023-09-10T06:19:44.414Z,99.90
2023-09-10T06:22:11.455Z,99.90
2023-09-10T06:24:38.652Z,99.90
2023-09-10T06:27:05.682Z,99.90
2023-09-10T06:29:32.731Z,99.90
2023-09-10T06:31:59.797Z,99.90
2023-09-10T06:34:28.971Z,99.90
2023-09-10T06:36:56.166Z,99.90
2023-09-10T06:39:23.609Z,99.90
2023-09-10T06:41:52.242Z,99.90
2023-09-10T06:44:21.324Z,99.90
2023-09-10T06:46:48.519Z,99.90
2023-09-10T06:49:15.645Z,99.90
2023-09-10T06:51:44.104Z,99.90
2023-09-10T06:54:11.184Z,99.90
2023-09-10T06:56:38.222Z,99.90
2023-09-10T06:59:05.397Z,99.90
2023-09-10T07:01:32.524Z,99.90
2023-09-10T07:03:59.604Z,99.90
2023-09-10T07:06:26.958Z,99.90
2023-09-10T07:08:55.504Z,99.90
2023-09-10T07:11:22.609Z,99.90
2023-09-10T07:13:50.334Z,99.90
2023-09-10T07:16:17.429Z,99.90
2023-09-10T07:18:44.600Z,99.90
2023-09-10T07:21:11.664Z,99.90
2023-09-10T07:23:38.674Z,99.90
2023-09-10T07:26:07.101Z,99.90
2023-09-10T07:28:34.117Z,99.90
2023-09-10T07:31:01.280Z,99.90
2023-09-10T07:33:28.421Z,99.90
2023-09-10T07:35:55.510Z,99.90
2023-09-10T07:38:22.757Z,99.30
2023-09-10T07:40:50.113Z,98.60
2023-09-10T07:43:18.618Z,97.30
2023-09-10T07:45:46.045Z,96.10
2023-09-10T07:48:13.177Z,95.50
2023-09-10T07:50:40.303Z,95.70
2023-09-10T07:53:07.424Z,96.10
2023-09-10T07:55:35.768Z,96.30
2023-09-10T07:58:02.850Z,96.30
2023-09-10T08:00:31.248Z,95.40
2023-09-10T08:03:08.219Z,95.20
2023-09-10T08:05:35.795Z,95.40
2023-09-10T08:08:03.071Z,93.40
2023-09-10T08:10:34.067Z,93.20
2023-09-10T08:13:04.682Z,92.10
2023-09-10T08:15:33.356Z,91.90
2023-09-10T08:18:04.892Z,91.90
2023-09-10T08:20:34.236Z,92.20
2023-09-10T08:23:01.337Z,91.10
2023-09-10T08:25:28.452Z,90.80
2023-09-10T08:27:55.466Z,90.90
2023-09-10T08:30:22.559Z,89.10
2023-09-10T08:32:51.040Z,88.60
2023-09-10T08:35:19.509Z,87.50
2023-09-10T08:37:46.637Z,86.80
2023-09-10T08:40:13.821Z,86.80
2023-09-10T08:42:50.909Z,85.80
2023-09-10T08:45:20.261Z,83.30
2023-09-10T08:47:55.794Z,82.60
2023-09-10T08:50:23.725Z,81.80
2023-09-10T08:52:51.676Z,83.90
2023-09-10T08:55:18.975Z,81.60
2023-09-10T08:57:52.930Z,81.80
2023-09-10T09:00:20.812Z,82.00
2023-09-10T09:02:48.392Z,81.80
2023-09-10T09:05:19.572Z,82.30
2023-09-10T09:07:56.753Z,81.80
2023-09-10T09:10:26.954Z,80.60
2023-09-10T09:12:57.441Z,80.20
2023-09-10T09:15:26.540Z,79.80
2023-09-10T09:17:57.101Z,79.20
2023-09-10T09:20:27.102Z,78.20
2023-09-10T09:22:59.811Z,76.80
2023-09-10T09:25:30.261Z,77.20
2023-09-10T09:27:59.065Z,76.40
2023-09-10T09:30:26.220Z,74.80
2023-09-10T09:32:55.698Z,73.30
2023-09-10T09:35:22.946Z,75.20
2023-09-10T09:37:54.240Z,73.20
2023-09-10T09:40:29.946Z,72.10
2023-09-10T09:43:16.855Z,72.50
2023-09-10T09:45:47.093Z,72.00
2023-09-10T09:48:14.583Z,71.50
2023-09-10T09:50:41.757Z,70.40
2023-09-10T09:53:16.283Z,72.00
2023-09-10T09:55:43.479Z,69.80
2023-09-10T09:58:10.540Z,67.70
2023-09-10T10:00:39.467Z,70.30
2023-09-10T10:03:07.201Z,67.20
2023-09-10T10:05:35.307Z,70.30
2023-09-10T10:08:02.959Z,68.60
2023-09-10T10:10:31.391Z,67.80
2023-09-10T10:12:59.841Z,68.00
2023-09-10T10:15:28.231Z,67.20
2023-09-10T10:17:57.851Z,65.50
2023-09-10T10:20:26.059Z,64.70
2023-09-10T10:22:53.930Z,65.30
2023-09-10T10:25:22.318Z,65.00
2023-09-10T10:27:52.268Z,65.30
2023-09-10T10:30:19.530Z,66.00
2023-09-10T10:32:50.351Z,64.60
2023-09-10T10:35:17.915Z,64.30
2023-09-10T10:37:48.845Z,64.60
2023-09-10T10:40:20.228Z,67.80
2023-09-10T10:42:55.210Z,64.80
2023-09-10T10:45:32.116Z,64.80
2023-09-10T10:48:05.058Z,64.70
2023-09-10T10:50:34.473Z,62.80
2023-09-10T10:53:05.284Z,62.90
2023-09-10T10:55:33.103Z,64.50
2023-09-10T10:58:02.075Z,66.30
2023-09-10T11:00:29.615Z,64.50
2023-09-10T11:03:09.702Z,61.50
2023-09-10T11:06:01.562Z,64.10
2023-09-10T11:08:29.950Z,66.40
2023-09-10T11:10:57.796Z,63.30
2023-09-10T11:13:26.507Z,63.30
2023-09-10T11:16:16.555Z,60.10
2023-09-10T11:18:44.576Z,58.80
2023-09-10T11:21:13.067Z,59.50
2023-09-10T11:23:41.422Z,58.80
2023-09-10T11:26:33.633Z,60.30
2023-09-10T11:29:05.348Z,60.40
2023-09-10T11:31:40.601Z,59.20
2023-09-10T11:34:35.866Z,58.30
2023-09-10T11:37:04.858Z,58.30
2023-09-10T11:39:33.679Z,57.60
2023-09-10T11:42:02.395Z,58.30
2023-09-10T11:44:31.113Z,56.90
2023-09-10T11:46:58.488Z,55.80
2023-09-10T11:49:26.676Z,55.40
2023-09-10T11:51:56.168Z,56.40
2023-09-10T11:54:23.746Z,58.70
2023-09-10T11:56:52.427Z,54.00
2023-09-10T11:59:21.901Z,54.50
2023-09-10T12:01:50.598Z,55.50
2023-09-10T12:04:18.279Z,53.70
2023-09-10T12:06:45.694Z,53.90
2023-09-10T12:09:12.871Z,54.10
2023-09-10T12:11:42.404Z,53.60
2023-09-10T12:14:10.013Z,55.30
2023-09-10T12:16:37.412Z,54.20
2023-09-10T12:19:08.039Z,52.50
2023-09-10T12:21:35.812Z,51.80
2023-09-10T12:24:03.216Z,52.60
2023-09-10T12:26:30.425Z,51.30
2023-09-10T12:28:57.588Z,51.60
2023-09-10T12:31:24.741Z,49.10
2023-09-10T12:33:52.081Z,48.70
2023-09-10T12:36:21.340Z,48.90
2023-09-10T12:38:49.115Z,49.20
2023-09-10T12:41:16.900Z,50.00
2023-09-10T12:43:45.048Z,49.70
2023-09-10T12:46:12.197Z,49.30
2023-09-10T12:48:39.834Z,47.80
2023-09-10T12:51:07.513Z,47.50
2023-09-10T12:53:36.436Z,47.60
2023-09-10T12:56:03.850Z,49.30
2023-09-10T12:58:31.705Z,47.90
2023-09-10T13:00:59.632Z,46.60
2023-09-10T13:03:28.086Z,46.40
2023-09-10T13:05:55.656Z,45.10
2023-09-10T13:08:22.803Z,46.30
2023-09-10T13:10:51.321Z,45.40
2023-09-10T13:13:18.474Z,45.80
2023-09-10T13:15:45.550Z,43.50
2023-09-10T13:18:12.917Z,44.80
2023-09-10T13:20:40.550Z,45.20
2023-09-10T13:23:08.101Z,45.20
2023-09-10T13:25:35.267Z,45.40
2023-09-10T13:28:04.124Z,46.50
2023-09-10T13:30:31.223Z,45.90
2023-09-10T13:32:58.340Z,46.30
2023-09-10T13:35:25.575Z,45.70
2023-09-10T13:37:52.875Z,44.80
2023-09-10T13:40:20.088Z,45.30
2023-09-10T13:42:47.257Z,44.20
2023-09-10T13:45:15.841Z,43.20
2023-09-10T13:47:43.097Z,45.20
2023-09-10T13:50:10.658Z,44.20
2023-09-10T13:52:37.706Z,44.40
2023-09-10T13:55:06.324Z,43.80
2023-09-10T13:57:33.396Z,41.30
2023-09-10T14:00:00.490Z,41.60
2023-09-10T14:02:29.030Z,42.50
2023-09-10T14:04:56.339Z,43.60
2023-09-10T14:07:23.442Z,43.30
2023-09-10T14:09:50.579Z,42.60
2023-09-10T14:12:17.637Z,42.20
2023-09-10T14:14:44.745Z,42.50
2023-09-10T14:17:11.891Z,42.50
2023-09-10T14:19:40.365Z,43.70
2023-09-10T14:22:07.442Z,45.50
2023-09-10T14:24:34.530Z,46.90
2023-09-10T14:27:02.458Z,48.00
2023-09-10T14:29:29.649Z,48.10
2023-09-10T14:31:56.874Z,48.20
2023-09-10T14:34:24.095Z,48.30
2023-09-10T14:36:52.663Z,48.90
2023-09-10T14:39:19.734Z,50.30
2023-09-10T14:41:46.814Z,49.00
2023-09-10T14:44:14.030Z,49.30
2023-09-10T14:46:41.335Z,50.00
2023-09-10T14:49:08.464Z,50.00
2023-09-10T14:51:35.557Z,51.20
2023-09-10T14:54:04.337Z,51.70
2023-09-10T14:56:31.477Z,50.30
2023-09-10T14:58:59.321Z,51.10
2023-09-10T15:01:26.495Z,51.20
2023-09-10T15:03:53.734Z,51.50
2023-09-10T15:06:20.889Z,50.30
2023-09-10T15:08:47.962Z,50.10
2023-09-10T15:11:16.460Z,51.00
2023-09-10T15:13:43.611Z,50.20
2023-09-10T15:16:10.755Z,50.60
2023-09-10T15:18:38.048Z,50.90
2023-09-10T15:21:05.184Z,49.90
2023-09-10T15:23:32.464Z,49.40
2023-09-10T15:25:59.614Z,49.20
2023-09-10T15:28:28.005Z,50.20
2023-09-10T15:30:55.189Z,51.50
2023-09-10T15:33:22.581Z,51.40
2023-09-10T15:35:49.693Z,52.30
2023-09-10T15:38:17.051Z,53.00
2023-09-10T15:40:44.356Z,52.50
2023-09-10T15:43:11.414Z,53.00
2023-09-10T15:45:40.158Z,53.80
2023-09-10T15:48:07.603Z,54.30
2023-09-10T15:50:34.696Z,55.40
2023-09-10T15:53:01.972Z,56.40
2023-09-10T15:55:29.049Z,56.70
2023-09-10T15:57:56.116Z,57.50
2023-09-10T16:00:23.331Z,58.10
2023-09-10T16:02:52.136Z,57.70
2023-09-10T16:05:19.435Z,57.50
2023-09-10T16:07:46.754Z,58.00
2023-09-10T16:10:13.844Z,58.20
2023-09-10T16:12:41.188Z,58.70
2023-09-10T16:15:09.181Z,59.30
2023-09-10T16:17:36.286Z,58.80
2023-09-10T16:20:06.019Z,59.20
2023-09-10T16:22:33.277Z,59.60
2023-09-10T16:25:00.577Z,59.70
2023-09-10T16:27:27.657Z,60.10
2023-09-10T16:29:54.699Z,61.10
2023-09-10T16:32:21.753Z,60.40
2023-09-10T16:34:49.171Z,60.40
2023-09-10T16:37:17.743Z,61.00
2023-09-10T16:39:46.002Z,61.20
2023-09-10T16:42:15.738Z,61.60
2023-09-10T16:44:42.852Z,61.40
2023-09-10T16:47:10.014Z,61.40
2023-09-10T16:49:37.214Z,60.80
2023-09-10T16:52:04.855Z,61.10
2023-09-10T16:54:33.238Z,60.80
2023-09-10T16:57:00.344Z,60.90
2023-09-10T16:59:27.419Z,60.80
2023-09-10T17:01:54.545Z,60.90
2023-09-10T17:04:21.722Z,61.30
2023-09-10T17:06:48.900Z,61.80
2023-09-10T17:09:16.192Z,62.70
2023-09-10T17:11:44.704Z,63.30
2023-09-10T17:14:11.794Z,63.60
2023-09-10T17:16:38.976Z,63.80
2023-09-10T17:19:06.038Z,64.10
2023-09-10T17:21:33.075Z,64.60
2023-09-10T17:24:02.552Z,64.70
2023-09-10T17:26:29.971Z,65.00
2023-09-10T17:28:58.416Z,65.20
2023-09-10T17:31:25.508Z,65.50
2023-09-10T17:33:52.595Z,65.90
2023-09-10T17:36:19.732Z,66.20
2023-09-10T17:38:46.907Z,66.50
2023-09-10T17:41:14.736Z,67.20
2023-09-10T17:43:42.372Z,66.60
2023-09-10T17:46:11.297Z,66.70
2023-09-10T17:48:38.356Z,67.20
2023-09-10T17:51:06.215Z,67.60
2023-09-10T17:53:33.641Z,68.30
2023-09-10T17:56:01.267Z,69.30
2023-09-10T17:58:31.007Z,68.80
2023-09-10T18:00:58.123Z,69.60
2023-09-10T18:03:28.141Z,70.20
2023-09-10T18:05:55.378Z,70.20
2023-09-10T18:08:22.457Z,70.30
2023-09-10T18:10:50.954Z,70.40
2023-09-10T18:13:18.138Z,71.10
2023-09-10T18:15:45.254Z,71.90
2023-09-10T18:18:12.399Z,71.90
2023-09-10T18:20:41.456Z,71.90
2023-09-10T18:23:08.781Z,73.30
2023-09-10T18:25:35.878Z,74.50
2023-09-10T18:28:02.960Z,75.20
2023-09-10T18:30:30.025Z,75.70
2023-09-10T18:32:57.136Z,75.70
2023-09-10T18:35:24.333Z,76.30
2023-09-10T18:37:52.782Z,77.80
2023-09-10T18:40:19.821Z,79.00
2023-09-10T18:42:46.966Z,79.30
2023-09-10T18:45:14.566Z,79.00
2023-09-10T18:47:41.757Z,79.90
2023-09-10T18:50:09.690Z,79.60
2023-09-10T18:52:36.798Z,79.30
2023-09-10T18:55:06.146Z,79.10
2023-09-10T18:57:33.197Z,79.60
2023-09-10T19:00:00.329Z,80.70
2023-09-10T19:02:30.023Z,80.40
2023-09-10T19:04:59.369Z,81.50
2023-09-10T19:07:26.840Z,81.60
2023-09-10T19:09:53.877Z,82.30
2023-09-10T19:12:22.328Z,83.10
2023-09-10T19:14:50.609Z,83.60
2023-09-10T19:17:17.875Z,82.30
2023-09-10T19:19:45.053Z,82.80
2023-09-10T19:22:12.247Z,83.40
2023-09-10T19:24:45.093Z,83.10
2023-09-10T19:27:22.536Z,83.20
2023-09-10T19:29:49.855Z,83.80
2023-09-10T19:32:16.974Z,85.20
2023-09-10T19:34:44.105Z,84.30
2023-09-10T19:37:11.182Z,84.40
2023-09-10T19:39:38.218Z,85.00
2023-09-10T19:42:05.730Z,85.20
2023-09-10T19:44:35.623Z,85.20
2023-09-10T19:47:02.903Z,86.40
2023-09-10T19:49:30.314Z,86.60
2023-09-10T19:51:57.360Z,85.90
2023-09-10T19:54:24.501Z,87.00
2023-09-10T19:56:51.696Z,86.10
2023-09-10T19:59:18.910Z,87.30
2023-09-10T20:01:47.354Z,87.10
2023-09-10T20:04:14.711Z,87.20
2023-09-10T20:06:42.474Z,88.30
2023-09-10T20:09:09.520Z,89.40
2023-09-10T20:11:37.593Z,87.90
2023-09-10T20:14:04.711Z,88.10
2023-09-10T20:16:31.939Z,89.00
2023-09-10T20:19:01.218Z,88.60
2023-09-10T20:21:28.286Z,88.50
2023-09-10T20:23:55.524Z,88.40
2023-09-10T20:26:22.890Z,89.10
2023-09-10T20:28:50.041Z,89.60
2023-09-10T20:31:17.283Z,89.30
2023-09-10T20:33:44.619Z,89.30
2023-09-10T20:36:13.336Z,90.20
2023-09-10T20:38:40.762Z,89.80
2023-09-10T20:41:11.664Z,90.70
2023-09-10T20:43:39.106Z,88.70
2023-09-10T20:46:06.507Z,89.10
2023-09-10T20:48:33.707Z,89.90
2023-09-10T20:51:03.893Z,90.80
2023-09-10T20:53:33.171Z,90.50
2023-09-10T20:56:00.650Z,91.90
2023-09-10T20:58:28.000Z,92.40
2023-09-10T21:00:55.617Z,91.70
2023-09-10T21:03:29.356Z,92.80
2023-09-10T21:05:58.005Z,92.40
2023-09-10T21:08:25.689Z,92.10
2023-09-10T21:10:54.276Z,92.50
2023-09-10T21:13:21.396Z,92.80
2023-09-10T21:15:48.541Z,91.80
2023-09-10T21:18:16.198Z,92.40
2023-09-10T21:20:43.639Z,92.70
2023-09-10T21:23:11.174Z,92.60
2023-09-10T21:25:41.556Z,92.90
2023-09-10T21:28:11.414Z,93.70
2023-09-10T21:30:38.509Z,93.50
2023-09-10T21:33:06.410Z,94.90
2023-09-10T21:35:33.825Z,93.90
2023-09-10T21:38:00.915Z,94.40
2023-09-10T21:40:27.900Z,92.90
2023-09-10T21:42:54.938Z,92.40
2023-09-10T21:45:23.379Z,93.10
2023-09-10T21:47:50.560Z,93.00
2023-09-10T21:50:17.939Z,92.40
2023-09-10T21:52:45.011Z,91.40
2023-09-10T21:55:12.190Z,91.30
2023-09-10T21:57:40.005Z,91.30
2023-09-10T22:00:08.840Z,87.60
2023-09-10T22:02:37.436Z,85.90
2023-09-10T22:05:05.140Z,85.80
2023-09-10T22:07:32.244Z,85.10
2023-09-10T22:09:59.300Z,85.40
2023-09-10T22:12:26.601Z,86.40
2023-09-10T22:14:54.426Z,87.10
2023-09-10T22:17:21.680Z,87.90
2023-09-10T22:19:50.177Z,87.20
2023-09-10T22:22:17.241Z,86.10
2023-09-10T22:24:44.334Z,83.60
2023-09-10T22:27:12.202Z,83.30
2023-09-10T22:29:39.501Z,82.80
2023-09-10T22:32:06.756Z,83.00
2023-09-10T22:34:33.811Z,83.70
2023-09-10T22:37:02.282Z,84.60
2023-09-10T22:39:29.378Z,84.60
2023-09-10T22:41:56.464Z,84.80
2023-09-10T22:44:23.621Z,85.70
2023-09-10T22:46:50.684Z,84.30
2023-09-10T22:49:17.713Z,84.10
2023-09-10T22:51:44.813Z,84.20
2023-09-10T22:54:13.260Z,84.60
2023-09-10T22:56:40.376Z,84.10
2023-09-10T22:59:08.247Z,84.40
2023-09-10T23:01:35.438Z,85.00
2023-09-10T23:04:02.663Z,86.60
2023-09-10T23:06:29.804Z,86.40
2023-09-10T23:08:56.959Z,87.20
2023-09-10T23:11:25.595Z,89.20
2023-09-10T23:13:52.625Z,89.20
2023-09-10T23:16:20.641Z,89.60
2023-09-10T23:18:47.718Z,90.10
2023-09-10T23:21:14.756Z,90.30
2023-09-10T23:23:42.635Z,91.20
2023-09-10T23:26:09.813Z,92.70
2023-09-10T23:28:38.481Z,92.70
2023-09-10T23:31:05.953Z,92.60
2023-09-10T23:33:33.389Z,94.10
2023-09-10T23:36:00.496Z,95.20
2023-09-10T23:38:27.676Z,95.10
2023-09-10T23:40:55.417Z,94.70
2023-09-10T23:43:22.893Z,95.10
2023-09-10T23:45:51.580Z,95.60
2023-09-10T23:48:18.893Z,95.30
2023-09-10T23:50:46.130Z,95.80
2023-09-10T23:53:13.336Z,95.30
2023-09-10T23:55:40.355Z,95.60
2023-09-10T23:58:07.666Z,95.50
